createdAt,value
2023-05-03T00:01:39.263Z,99.90
2023-05-03T00:04:06.429Z,99.90
2023-05-03T00:06:33.542Z,99.90
2023-05-03T00:09:00.535Z,99.90
2023-05-03T00:11:27.476Z,99.90
2023-05-03T00:13:54.439Z,99.90
2023-05-03T00:16:21.254Z,99.90
2023-05-03T00:18:49.307Z,99.90
2023-05-03T00:21:17.066Z,99.90
2023-05-03T00:23:43.996Z,99.90
2023-05-03T00:26:10.904Z,99.90
2023-05-03T00:28:37.875Z,99.90
2023-05-03T00:31:09.549Z,99.90
2023-05-03T00:33:40.452Z,99.90
2023-05-03T00:36:11.880Z,99.90
2023-05-03T00:38:39.579Z,99.90
2023-05-03T00:41:06.912Z,99.90
2023-05-03T00:43:35.457Z,99.90
2023-05-03T00:46:16.046Z,99.90
2023-05-03T00:48:46.131Z,99.90
2023-05-03T00:51:15.354Z,99.90
2023-05-03T00:53:43.290Z,99.90
2023-05-03T00:56:11.452Z,99.90
2023-05-03T00:58:40.809Z,99.90
2023-05-03T01:01:08.188Z,99.90
2023-05-03T01:03:37.866Z,99.90
2023-05-03T01:06:24.656Z,99.90
2023-05-03T01:08:59.723Z,99.90
2023-05-03T01:11:48.182Z,99.90
2023-05-03T01:14:53.560Z,99.90
2023-05-03T01:17:28.005Z,99.90
2023-05-03T01:20:00.913Z,99.90
2023-05-03T01:22:34.402Z,99.90
2023-05-03T01:25:12.412Z,99.90
2023-05-03T01:27:40.863Z,99.90
2023-05-03T01:30:09.948Z,99.90
2023-05-03T01:32:46.029Z,99.90
2023-05-03T01:35:34.160Z,99.90
2023-05-03T01:38:01.665Z,99.90
2023-05-03T01:40:31.025Z,99.90
2023-05-03T01:42:59.828Z,99.90
2023-05-03T01:45:26.953Z,99.90
2023-05-03T01:47:53.960Z,99.90
2023-05-03T01:50:20.737Z,99.90
2023-05-03T01:52:47.860Z,99.90
2023-05-03T01:55:14.635Z,99.90
2023-05-03T01:57:41.591Z,99.90
2023-05-03T02:00:10.336Z,99.90
2023-05-03T02:02:37.283Z,99.90
2023-05-03T02:05:04.250Z,99.90
2023-05-03T02:07:31.240Z,99.90
2023-05-03T02:09:57.974Z,99.90
2023-05-03T02:12:24.649Z,99.90
2023-05-03T02:14:51.806Z,99.90
2023-05-03T02:17:19.071Z,99.90
2023-05-03T02:19:46.016Z,99.90
2023-05-03T02:22:14.094Z,99.90
2023-05-03T02:24:41.146Z,99.90
2023-05-03T02:27:08.157Z,99.90
2023-05-03T02:29:34.997Z,99.90
2023-05-03T02:32:02.120Z,99.90
2023-05-03T02:34:28.842Z,99.90
2023-05-03T02:36:56.033Z,99.90
2023-05-03T02:39:22.783Z,99.90
2023-05-03T02:41:49.759Z,99.90
2023-05-03T02:44:16.760Z,99.90
2023-05-03T02:46:44.066Z,99.90
2023-05-03T02:49:10.980Z,99.90
2023-05-03T02:51:37.975Z,99.90
2023-05-03T02:54:04.987Z,99.90
2023-05-03T02:56:33.449Z,99.90
2023-05-03T02:59:00.166Z,99.90
2023-05-03T03:01:27.612Z,99.90
2023-05-03T03:03:54.768Z,99.90
2023-05-03T03:06:22.102Z,99.90
2023-05-03T03:08:48.859Z,99.90
2023-05-03T03:11:15.928Z,99.90
2023-05-03T03:13:42.713Z,99.90
2023-05-03T03:16:10.199Z,99.90
2023-05-03T03:18:37.877Z,99.90
2023-05-03T03:21:04.753Z,99.90
2023-05-03T03:23:31.678Z,99.90
2023-05-03T03:25:58.445Z,99.90
2023-05-03T03:28:25.537Z,99.90
2023-05-03T03:30:52.489Z,99.90
2023-05-03T03:33:24.328Z,99.90
2023-05-03T03:35:51.714Z,99.90
2023-05-03T03:38:18.671Z,99.90
2023-05-03T03:40:45.437Z,99.90
2023-05-03T03:43:12.443Z,99.90
2023-05-03T03:45:39.169Z,99.90
2023-05-03T03:48:06.563Z,99.90
2023-05-03T03:50:34.237Z,99.90
2023-05-03T03:53:03.304Z,99.90
2023-05-03T03:55:30.197Z,99.90
2023-05-03T03:57:58.119Z,99.90
2023-05-03T04:00:24.841Z,99.90
2023-05-03T04:02:51.585Z,99.90
2023-05-03T04:05:18.756Z,99.90
2023-05-03T04:07:45.554Z,99.90
2023-05-03T04:10:12.571Z,99.90
2023-05-03T04:12:39.303Z,99.90
2023-05-03T04:15:06.738Z,99.90
2023-05-03T04:17:35.278Z,99.90
2023-05-03T04:20:10.986Z,99.90
2023-05-03T04:22:39.804Z,99.90
2023-05-03T04:25:08.769Z,99.90
2023-05-03T04:27:35.893Z,99.90
2023-05-03T04:30:04.111Z,99.90
2023-05-03T04:32:37.180Z,99.90
2023-05-03T04:35:09.687Z,99.90
2023-05-03T04:37:41.986Z,99.90
2023-05-03T04:40:10.846Z,99.90
2023-05-03T04:42:37.972Z,99.90
2023-05-03T04:45:09.949Z,99.90
2023-05-03T04:47:37.185Z,99.90
2023-05-03T04:50:04.369Z,99.90
2023-05-03T04:52:32.018Z,99.90
2023-05-03T04:54:58.791Z,99.90
2023-05-03T04:57:25.888Z,99.90
2023-05-03T04:59:54.086Z,99.90
2023-05-03T05:02:21.694Z,99.90
2023-05-03T05:04:48.844Z,99.90
2023-05-03T05:07:15.741Z,99.90
2023-05-03T05:09:42.410Z,99.90
2023-05-03T05:12:09.612Z,99.90
2023-05-03T05:14:36.506Z,99.90
2023-05-03T05:17:03.874Z,99.90
2023-05-03T05:19:30.894Z,99.90
2023-05-03T05:21:57.743Z,99.90
2023-05-03T05:24:24.661Z,99.90
2023-05-03T05:26:51.539Z,99.90
2023-05-03T05:29:18.511Z,99.90
2023-05-03T05:31:45.233Z,99.90
2023-05-03T05:34:11.900Z,99.90
2023-05-03T05:36:38.860Z,99.90
2023-05-03T05:39:05.910Z,99.90
2023-05-03T05:41:32.610Z,99.90
2023-05-03T05:43:59.818Z,99.90
2023-05-03T05:46:26.633Z,99.90
2023-05-03T05:48:53.386Z,99.90
2023-05-03T05:51:20.514Z,99.90
2023-05-03T05:53:47.549Z,99.90
2023-05-03T05:56:14.491Z,99.90
2023-05-03T05:58:41.463Z,99.90
2023-05-03T06:01:08.823Z,99.90
2023-05-03T06:03:35.949Z,99.90
2023-05-03T06:06:03.092Z,99.90
2023-05-03T06:08:30.148Z,98.80
2023-05-03T06:10:56.910Z,96.50
2023-05-03T06:13:23.706Z,95.50
2023-05-03T06:15:50.680Z,94.90
2023-05-03T06:18:17.436Z,93.50
2023-05-03T06:20:44.129Z,92.10
2023-05-03T06:23:11.161Z,90.60
2023-05-03T06:25:38.141Z,87.10
2023-05-03T06:28:04.946Z,86.20
2023-05-03T06:30:32.000Z,81.50
2023-05-03T06:32:58.735Z,83.20
2023-05-03T06:35:25.852Z,79.50
2023-05-03T06:37:52.629Z,76.00
2023-05-03T06:40:19.492Z,72.00
2023-05-03T06:42:46.378Z,70.80
2023-05-03T06:45:13.440Z,72.10
2023-05-03T06:47:42.650Z,72.30
2023-05-03T06:50:10.537Z,67.80
2023-05-03T06:52:37.444Z,65.10
2023-05-03T06:55:04.887Z,60.70
2023-05-03T06:57:31.726Z,58.70
2023-05-03T06:59:58.718Z,58.40
2023-05-03T07:02:26.883Z,61.00
2023-05-03T07:04:53.983Z,65.00
2023-05-03T07:07:21.815Z,65.80
2023-05-03T07:09:48.592Z,68.20
2023-05-03T07:12:16.399Z,66.90
2023-05-03T07:14:43.778Z,68.30
2023-05-03T07:17:10.620Z,67.50
2023-05-03T07:19:38.979Z,66.70
2023-05-03T07:22:05.817Z,63.40
2023-05-03T07:24:32.858Z,59.40
2023-05-03T07:26:59.799Z,60.70
2023-05-03T07:29:27.510Z,61.80
2023-05-03T07:31:54.498Z,61.00
2023-05-03T07:34:21.874Z,63.10
2023-05-03T07:36:48.619Z,67.80
2023-05-03T07:39:16.098Z,69.40
2023-05-03T07:41:43.064Z,68.40
2023-05-03T07:44:09.756Z,69.50
2023-05-03T07:46:36.959Z,67.70
2023-05-03T07:49:04.879Z,67.00
2023-05-03T07:51:41.860Z,66.00
2023-05-03T07:54:08.920Z,65.70
2023-05-03T07:56:35.952Z,64.60
2023-05-03T07:59:09.243Z,66.80
2023-05-03T08:01:37.675Z,65.40
2023-05-03T08:04:05.106Z,66.80
2023-05-03T08:06:33.061Z,67.20
2023-05-03T08:09:00.097Z,67.90
2023-05-03T08:11:30.234Z,67.00
2023-05-03T08:13:57.004Z,67.00
2023-05-03T08:16:24.328Z,65.90
2023-05-03T08:18:51.962Z,65.00
2023-05-03T08:21:19.469Z,61.70
2023-05-03T08:23:46.424Z,58.50
2023-05-03T08:26:14.221Z,53.80
2023-05-03T08:28:41.417Z,50.60
2023-05-03T08:31:08.822Z,49.00
2023-05-03T08:33:35.882Z,52.10
2023-05-03T08:36:03.370Z,53.20
2023-05-03T08:38:30.108Z,48.90
2023-05-03T08:40:59.640Z,46.50
2023-05-03T08:43:28.999Z,45.10
2023-05-03T08:45:56.073Z,43.30
2023-05-03T08:48:23.235Z,42.80
2023-05-03T08:50:52.360Z,43.40
2023-05-03T08:53:19.271Z,42.90
2023-05-03T08:55:46.018Z,43.00
2023-05-03T08:58:13.545Z,43.40
2023-05-03T09:00:45.393Z,44.40
2023-05-03T09:03:12.894Z,43.40
2023-05-03T09:05:41.518Z,40.40
2023-05-03T09:08:10.922Z,37.70
2023-05-03T09:10:39.851Z,36.70
2023-05-03T09:13:07.949Z,35.30
2023-05-03T09:15:35.447Z,32.90
2023-05-03T09:18:21.351Z,33.50
2023-05-03T09:20:52.790Z,34.40
2023-05-03T09:23:40.432Z,31.80
2023-05-03T09:26:07.437Z,31.30
2023-05-03T09:28:44.372Z,31.80
2023-05-03T09:31:13.263Z,31.30
2023-05-03T09:33:40.378Z,30.40
2023-05-03T09:36:07.769Z,31.10
2023-05-03T09:38:36.932Z,30.90
2023-05-03T09:41:07.350Z,31.90
2023-05-03T09:43:35.741Z,31.80
2023-05-03T09:46:13.094Z,30.90
2023-05-03T09:48:40.924Z,30.40
2023-05-03T09:51:08.434Z,30.40
2023-05-03T09:53:37.331Z,30.80
2023-05-03T09:56:08.978Z,30.30
2023-05-03T09:58:36.617Z,29.60
2023-05-03T10:01:03.400Z,30.10
2023-05-03T10:03:51.231Z,31.50
2023-05-03T10:06:21.962Z,29.70
2023-05-03T10:08:55.018Z,29.00
2023-05-03T10:11:26.758Z,29.50
2023-05-03T10:13:55.931Z,30.30
2023-05-03T10:16:44.420Z,29.50
2023-05-03T10:19:36.111Z,31.90
2023-05-03T10:22:05.805Z,28.90
2023-05-03T10:24:34.359Z,28.40
2023-05-03T10:27:02.070Z,29.20
2023-05-03T10:29:34.908Z,28.70
2023-05-03T10:32:05.888Z,28.20
2023-05-03T10:34:39.540Z,28.40
2023-05-03T10:37:11.890Z,28.50
2023-05-03T10:39:44.844Z,27.50
2023-05-03T10:42:11.505Z,29.10
2023-05-03T10:44:54.544Z,28.40
2023-05-03T10:47:23.772Z,27.70
2023-05-03T10:50:11.735Z,27.10
2023-05-03T10:52:38.453Z,27.80
2023-05-03T10:55:13.275Z,26.60
2023-05-03T10:57:42.654Z,26.20
2023-05-03T11:00:13.933Z,27.50
2023-05-03T11:03:02.742Z,27.40
2023-05-03T11:05:31.541Z,28.30
2023-05-03T11:08:09.813Z,27.50
2023-05-03T11:10:36.593Z,26.30
2023-05-03T11:13:04.407Z,25.60
2023-05-03T11:15:31.425Z,26.00
2023-05-03T11:17:58.555Z,26.90
2023-05-03T11:20:26.025Z,27.20
2023-05-03T11:22:53.220Z,25.80
2023-05-03T11:25:20.264Z,25.20
2023-05-03T11:27:48.018Z,26.60
2023-05-03T11:30:15.023Z,24.70
2023-05-03T11:32:42.986Z,25.10
2023-05-03T11:35:10.151Z,25.40
2023-05-03T11:37:36.927Z,25.10
2023-05-03T11:40:05.301Z,25.00
2023-05-03T11:42:32.097Z,25.30
2023-05-03T11:45:00.041Z,26.40
2023-05-03T11:47:27.285Z,26.30
2023-05-03T11:49:55.941Z,26.00
2023-05-03T11:52:24.429Z,25.60
2023-05-03T11:54:51.410Z,25.90
2023-05-03T11:57:18.885Z,23.90
2023-05-03T11:59:45.756Z,24.60
2023-05-03T12:02:14.469Z,25.80
2023-05-03T12:04:45.668Z,25.90
2023-05-03T12:07:14.978Z,24.50
2023-05-03T12:09:47.687Z,25.80
2023-05-03T12:12:26.203Z,24.60
2023-05-03T12:15:03.574Z,25.50
2023-05-03T12:17:37.907Z,27.00
2023-05-03T12:22:57.652Z,26.50
2023-05-03T12:25:29.186Z,26.30
2023-05-03T12:28:18.801Z,25.30
2023-05-03T12:30:47.641Z,25.20
2023-05-03T12:33:17.036Z,25.10
2023-05-03T12:35:46.923Z,25.00
2023-05-03T12:38:17.493Z,25.50
2023-05-03T12:40:45.940Z,27.10
2023-05-03T12:43:13.189Z,27.30
2023-05-03T12:45:41.096Z,27.00
2023-05-03T12:48:09.057Z,26.90
2023-05-03T12:50:38.733Z,27.50
2023-05-03T12:53:09.459Z,27.50
2023-05-03T12:55:43.222Z,27.60
2023-05-03T13:00:51.420Z,29.50
2023-05-03T13:03:33.440Z,30.00
2023-05-03T13:06:11.112Z,29.60
2023-05-03T13:08:48.305Z,28.90
2023-05-03T13:11:19.263Z,28.90
2023-05-03T13:13:46.756Z,28.80
2023-05-03T13:16:14.570Z,29.10
2023-05-03T13:18:43.206Z,30.50
2023-05-03T13:21:11.122Z,31.20
2023-05-03T13:23:38.054Z,33.40
2023-05-03T13:26:04.924Z,34.90
2023-05-03T13:28:32.111Z,35.10
2023-05-03T13:30:58.817Z,39.60
2023-05-03T13:33:25.744Z,39.30
2023-05-03T13:35:52.410Z,40.10
2023-05-03T13:38:19.308Z,40.70
2023-05-03T13:40:46.295Z,41.70
2023-05-03T13:43:12.949Z,41.10
2023-05-03T13:45:39.891Z,42.60
2023-05-03T13:48:17.904Z,41.40
2023-05-03T13:50:46.018Z,40.80
2023-05-03T13:53:14.956Z,41.90
2023-05-03T13:55:41.706Z,42.80
2023-05-03T13:58:08.651Z,43.90
2023-05-03T14:00:35.665Z,44.20
2023-05-03T14:03:02.529Z,46.90
2023-05-03T14:05:29.672Z,45.40
2023-05-03T14:07:57.275Z,46.20
2023-05-03T14:10:37.380Z,47.10
2023-05-03T14:13:04.206Z,48.70
2023-05-03T14:15:31.467Z,48.10
2023-05-03T14:18:01.308Z,50.70
2023-05-03T14:20:30.504Z,50.40
2023-05-03T14:22:57.245Z,50.20
2023-05-03T14:25:23.985Z,49.30
2023-05-03T14:27:51.126Z,48.80
2023-05-03T14:30:17.896Z,47.80
2023-05-03T14:32:44.849Z,49.30
2023-05-03T14:35:11.622Z,51.60
2023-05-03T14:37:38.637Z,51.10
2023-05-03T14:40:06.779Z,51.80
2023-05-03T14:42:33.824Z,52.00
2023-05-03T14:45:01.046Z,50.70
2023-05-03T14:47:27.964Z,51.40
2023-05-03T14:49:54.665Z,51.00
2023-05-03T14:52:21.440Z,51.20
2023-05-03T14:54:48.121Z,50.60
2023-05-03T14:57:14.948Z,52.10
2023-05-03T14:59:41.865Z,52.50
2023-05-03T15:02:10.141Z,51.80
2023-05-03T15:04:40.403Z,53.20
2023-05-03T15:07:07.743Z,51.40
2023-05-03T15:09:42.962Z,52.80
2023-05-03T15:12:09.995Z,53.60
2023-05-03T15:14:36.647Z,54.00
2023-05-03T15:17:03.467Z,53.00
2023-05-03T15:19:30.458Z,53.40
2023-05-03T15:21:57.186Z,53.80
2023-05-03T15:24:23.973Z,53.20
2023-05-03T15:26:51.730Z,55.90
2023-05-03T15:29:18.433Z,54.50
2023-05-03T15:31:45.435Z,56.50
2023-05-03T15:34:12.514Z,58.30
2023-05-03T15:36:40.453Z,57.20
2023-05-03T15:39:08.010Z,57.00
2023-05-03T15:41:34.730Z,57.90
2023-05-03T15:44:25.634Z,57.80
2023-05-03T15:46:52.529Z,57.60
2023-05-03T15:49:19.455Z,57.90
2023-05-03T15:51:46.361Z,58.80
2023-05-03T15:54:13.060Z,59.40
2023-05-03T15:56:40.435Z,60.50
2023-05-03T15:59:07.534Z,59.00
2023-05-03T16:01:34.525Z,60.70
2023-05-03T16:04:01.311Z,58.90
2023-05-03T16:06:28.785Z,60.00
2023-05-03T16:08:55.806Z,60.80
2023-05-03T16:11:22.586Z,60.80
2023-05-03T16:13:50.686Z,62.20
2023-05-03T16:16:17.764Z,62.00
2023-05-03T16:19:00.920Z,61.50
2023-05-03T16:21:27.900Z,62.10
2023-05-03T16:23:54.662Z,61.40
2023-05-03T16:26:21.711Z,64.60
2023-05-03T16:28:50.061Z,63.50
2023-05-03T16:31:17.013Z,62.00
2023-05-03T16:33:43.803Z,63.90
2023-05-03T16:36:10.970Z,64.30
2023-05-03T16:38:37.660Z,62.80
2023-05-03T16:41:04.397Z,63.60
2023-05-03T16:43:32.332Z,63.80
2023-05-03T16:46:00.484Z,65.00
2023-05-03T16:48:31.564Z,64.30
2023-05-03T16:50:59.614Z,65.00
2023-05-03T16:53:26.696Z,64.10
2023-05-03T16:56:25.214Z,65.40
2023-05-03T16:58:53.371Z,66.40
2023-05-03T17:01:20.448Z,64.90
2023-05-03T17:03:47.291Z,65.40
2023-05-03T17:06:15.060Z,64.80
2023-05-03T17:08:42.005Z,65.10
2023-05-03T17:11:12.690Z,64.80
2023-05-03T17:13:40.190Z,65.70
2023-05-03T17:16:09.145Z,66.10
2023-05-03T17:18:37.175Z,65.50
2023-05-03T17:21:05.111Z,66.20
2023-05-03T17:23:38.798Z,67.50
2023-05-03T17:26:08.817Z,70.30
2023-05-03T17:28:37.091Z,69.80
2023-05-03T17:31:05.592Z,69.20
2023-05-03T17:33:35.166Z,70.00
2023-05-03T17:36:05.133Z,70.50
2023-05-03T17:38:33.283Z,71.80
2023-05-03T17:41:07.783Z,73.00
2023-05-03T17:43:36.273Z,70.90
2023-05-03T17:46:12.277Z,71.90
2023-05-03T17:48:44.160Z,73.50
2023-05-03T17:51:13.351Z,74.70
2023-05-03T17:53:41.103Z,73.70
2023-05-03T17:56:17.842Z,74.40
2023-05-03T17:58:45.737Z,75.70
2023-05-03T18:01:13.542Z,76.10
2023-05-03T18:03:41.886Z,76.50
2023-05-03T18:06:10.601Z,76.80
2023-05-03T18:08:37.877Z,77.80
2023-05-03T18:11:04.860Z,78.00
2023-05-03T18:13:34.985Z,78.60
2023-05-03T18:18:34.005Z,81.10
2023-05-03T18:21:02.284Z,81.90
2023-05-03T18:23:30.967Z,83.40
2023-05-03T18:25:57.986Z,83.50
2023-05-03T18:28:25.592Z,83.30
2023-05-03T18:30:58.981Z,84.40
2023-05-03T18:33:25.665Z,84.40
2023-05-03T18:35:53.209Z,85.50
2023-05-03T18:38:21.862Z,87.70
2023-05-03T18:40:49.666Z,89.00
2023-05-03T18:43:16.947Z,88.70
2023-05-03T18:45:44.133Z,88.30
2023-05-03T18:48:10.898Z,89.60
2023-05-03T18:50:44.104Z,90.50
2023-05-03T18:53:11.174Z,90.50
2023-05-03T18:55:38.030Z,90.10
2023-05-03T18:58:05.573Z,92.30
2023-05-03T19:00:32.482Z,93.20
2023-05-03T19:02:59.567Z,94.10
2023-05-03T19:05:26.348Z,95.20
2023-05-03T19:07:53.125Z,97.20
2023-05-03T19:10:20.959Z,99.70
2023-05-03T19:12:47.953Z,99.90
2023-05-03T19:15:14.700Z,99.90
2023-05-03T19:17:42.262Z,99.90
2023-05-03T19:20:10.342Z,99.90
2023-05-03T19:22:37.322Z,99.90
2023-05-03T19:25:05.219Z,99.90
2023-05-03T19:27:32.138Z,99.90
2023-05-03T19:29:58.868Z,99.90
2023-05-03T19:32:25.865Z,99.90
2023-05-03T19:34:52.882Z,99.90
2023-05-03T19:37:19.732Z,99.90
2023-05-03T19:39:46.798Z,99.90
2023-05-03T19:42:13.608Z,99.90
2023-05-03T19:44:40.690Z,99.90
2023-05-03T19:47:07.401Z,99.90
2023-05-03T19:49:34.406Z,99.90
2023-05-03T19:52:02.073Z,99.90
2023-05-03T19:54:29.995Z,99.90
2023-05-03T19:56:56.697Z,99.90
2023-05-03T19:59:23.443Z,99.90
2023-05-03T20:01:50.680Z,99.90
2023-05-03T20:04:17.472Z,99.90
2023-05-03T20:06:44.520Z,99.90
2023-05-03T20:09:11.296Z,99.90
2023-05-03T20:11:38.039Z,99.90
2023-05-03T20:14:04.725Z,99.90
2023-05-03T20:16:33.488Z,99.90
2023-05-03T20:19:00.958Z,99.90
2023-05-03T20:21:27.698Z,99.90
2023-05-03T20:23:54.633Z,99.90
2023-05-03T20:26:21.785Z,99.90
2023-05-03T20:28:48.826Z,99.90
2023-05-03T20:31:15.769Z,99.90
2023-05-03T20:33:42.534Z,99.90
2023-05-03T20:36:09.521Z,99.90
2023-05-03T20:38:36.273Z,99.90
2023-05-03T20:41:03.248Z,99.90
2023-05-03T20:43:29.937Z,99.90
2023-05-03T20:45:57.874Z,99.90
2023-05-03T20:48:24.674Z,99.90
2023-05-03T20:50:51.512Z,99.90
2023-05-03T20:53:18.367Z,99.90
2023-05-03T20:55:45.079Z,99.90
2023-05-03T20:58:12.674Z,99.90
2023-05-03T21:00:39.611Z,99.90
2023-05-03T21:03:06.409Z,99.90
2023-05-03T21:05:33.199Z,99.90
2023-05-03T21:07:59.933Z,99.90
2023-05-03T21:10:26.669Z,99.90
2023-05-03T21:12:53.698Z,99.90
2023-05-03T21:15:20.459Z,99.90
2023-05-03T21:17:47.750Z,99.90
2023-05-03T21:20:14.544Z,99.90
2023-05-03T21:22:41.227Z,99.90
2023-05-03T21:25:08.756Z,99.90
2023-05-03T21:27:35.485Z,99.90
2023-05-03T21:30:02.822Z,99.90
2023-05-03T21:32:29.884Z,99.90
2023-05-03T21:34:56.799Z,99.90
2023-05-03T21:37:23.796Z,99.90
2023-05-03T21:40:00.382Z,99.90
2023-05-03T21:42:28.336Z,99.90
2023-05-03T21:44:55.736Z,99.90
2023-05-03T21:47:22.398Z,99.90
2023-05-03T21:49:49.355Z,99.90
2023-05-03T21:52:16.029Z,99.90
2023-05-03T21:54:42.884Z,99.90
2023-05-03T21:57:09.812Z,99.90
2023-05-03T21:59:36.496Z,99.90
2023-05-03T22:02:03.307Z,99.90
2023-05-03T22:04:31.093Z,99.90
2023-05-03T22:06:58.132Z,99.90
2023-05-03T22:09:25.447Z,99.90
2023-05-03T22:11:52.327Z,99.90
2023-05-03T22:14:19.265Z,99.90
2023-05-03T22:16:46.071Z,99.90
2023-05-03T22:19:13.291Z,99.90
2023-05-03T22:21:40.266Z,99.90
2023-05-03T22:24:07.722Z,99.90
2023-05-03T22:26:34.538Z,99.90
2023-05-03T22:29:02.020Z,99.90
2023-05-03T22:31:30.358Z,99.90
2023-05-03T22:33:57.739Z,99.90
2023-05-03T22:36:24.480Z,99.90
2023-05-03T22:38:55.427Z,99.90
2023-05-03T22:41:22.331Z,99.90
2023-05-03T22:43:49.362Z,99.90
2023-05-03T22:46:16.255Z,99.90
2023-05-03T22:48:43.328Z,99.90
2023-05-03T22:51:10.167Z,99.90
2023-05-03T22:53:36.881Z,99.90
2023-05-03T22:56:07.209Z,99.90
2023-05-03T22:58:34.670Z,99.90
2023-05-03T23:01:01.860Z,99.90
2023-05-03T23:03:29.175Z,99.90
2023-05-03T23:05:56.090Z,99.90
2023-05-03T23:08:23.295Z,99.90
2023-05-03T23:10:50.513Z,99.90
2023-05-03T23:13:17.237Z,99.90
2023-05-03T23:15:44.017Z,99.90
2023-05-03T23:18:10.722Z,99.90
2023-05-03T23:20:37.887Z,99.90
2023-05-03T23:23:04.626Z,99.90
2023-05-03T23:25:31.640Z,99.90
2023-05-03T23:27:58.661Z,99.90
2023-05-03T23:30:26.163Z,99.90
2023-05-03T23:32:53.498Z,99.90
2023-05-03T23:35:21.699Z,99.90
2023-05-03T23:37:48.422Z,99.90
2023-05-03T23:40:15.252Z,99.90
2023-05-03T23:42:43.375Z,99.90
2023-05-03T23:45:10.826Z,99.90
2023-05-03T23:47:37.704Z,99.90
2023-05-03T23:50:05.709Z,99.90
2023-05-03T23:52:32.873Z,99.90
2023-05-03T23:54:59.599Z,99.90
2023-05-03T23:57:27.004Z,99.90
2023-05-03T23:59:53.917Z,99.90
